Time;durP1;ratioP1;P1;durP2;ratioP2;P2;SDS_P1;SDS_P2;PMS_P1;PMS_P2;Temp;Humidity;BMP_temperature;BMP_pressure;BME280_temperature;BME280_humidity;BME280_pressure;Samples;Min_cycle;Max_cycle;Signal;HPM_P1;HPM_P2
2023/07/21 00:01:57;;;;;;;10.10;4.28;;;;;;;24.13;52.42;96091.06;5115499;28;20070;-65
2023/07/21 00:04:24;;;;;;;9.73;4.25;;;;;;;24.07;53.02;96088.97;5115355;28;20057;-65
2023/07/21 00:06:51;;;;;;;7.70;4.43;;;;;;;24.03;53.33;96087.59;5115344;28;20485;-65
2023/07/21 00:09:19;;;;;;;13.50;4.20;;;;;;;23.93;53.53;96083.19;5115473;28;20047;-65
2023/07/21 00:11:46;;;;;;;10.88;4.80;;;;;;;23.93;53.08;96085.03;5115208;28;20044;-65
2023/07/21 00:14:14;;;;;;;10.30;5.00;;;;;;;23.85;54.06;96078.63;5115316;28;20443;-65
2023/07/21 00:16:42;;;;;;;11.48;4.50;;;;;;;23.81;53.73;96079.91;5115258;28;20047;-65
2023/07/21 00:19:10;;;;;;;8.60;4.10;;;;;;;23.69;54.25;96081.97;5115290;28;20046;-66
2023/07/21 00:21:37;;;;;;;8.48;4.10;;;;;;;23.69;54.18;96079.28;5115168;28;20069;-65
2023/07/21 00:24:06;;;;;;;5.57;4.40;;;;;;;23.66;53.67;96076.09;5114957;28;20071;-64
2023/07/21 00:26:35;;;;;;;11.75;4.53;;;;;;;23.62;53.55;96074.75;5115087;28;20039;-64
2023/07/21 00:29:02;;;;;;;8.05;4.13;;;;;;;23.58;54.49;96072.38;5114767;28;20051;-64
2023/07/21 00:31:29;;;;;;;8.02;4.10;;;;;;;23.59;53.84;96074.03;5114927;28;20050;-65
2023/07/21 00:33:59;;;;;;;8.15;4.55;;;;;;;23.57;54.09;96070.69;5114878;28;20056;-65
2023/07/21 00:36:26;;;;;;;7.53;4.15;;;;;;;23.54;53.93;96073.66;5114769;28;20044;-65
2023/07/21 00:38:53;;;;;;;9.82;4.25;;;;;;;23.55;54.13;96069.16;5114669;28;20051;-65
2023/07/21 00:41:22;;;;;;;8.00;4.95;;;;;;;23.55;53.96;96079.84;5114813;28;20050;-65
2023/07/21 00:43:49;;;;;;;8.25;4.53;;;;;;;23.48;54.50;96067.09;5114663;28;20104;-65
2023/07/21 00:46:16;;;;;;;6.75;4.55;;;;;;;23.44;54.40;96071.06;5114267;28;20048;-65
2023/07/21 00:48:44;;;;;;;9.10;5.00;;;;;;;23.40;54.97;96067.03;5114625;28;20127;-65
2023/07/21 00:51:12;;;;;;;7.75;4.75;;;;;;;23.37;54.76;96069.97;5114600;28;20077;-65
2023/07/21 00:53:39;;;;;;;8.60;4.05;;;;;;;23.30;54.37;96069.69;5114448;28;20116;-65
2023/07/21 00:56:06;;;;;;;12.65;4.43;;;;;;;23.30;54.39;96072.38;5114374;28;20477;-65
2023/07/21 00:58:33;;;;;;;8.55;4.55;;;;;;;23.33;54.50;96072.06;5114271;28;20127;-65
2023/07/21 01:01:01;;;;;;;8.93;4.05;;;;;;;23.33;54.73;96072.06;5114280;28;20048;-65
2023/07/21 01:03:29;;;;;;;10.48;4.30;;;;;;;23.26;54.41;96072.84;5114239;28;20040;-65
2023/07/21 01:05:58;;;;;;;7.13;4.32;;;;;;;23.25;54.67;96069.31;5114148;28;20071;-65
2023/07/21 01:08:27;;;;;;;7.95;4.53;;;;;;;23.26;54.39;96071.00;5114271;28;20044;-65
2023/07/21 01:10:56;;;;;;;9.82;4.63;;;;;;;23.30;54.87;96067.03;5114130;28;20039;-65
2023/07/21 01:13:23;;;;;;;10.65;4.10;;;;;;;23.32;54.47;96065.06;5114016;28;20055;-65
2023/07/21 01:15:53;;;;;;;10.65;4.32;;;;;;;23.38;54.06;96060.16;5114120;28;20122;-65
2023/07/21 01:18:21;;;;;;;9.00;4.30;;;;;;;23.36;54.96;96060.28;5114126;28;20048;-65
2023/07/21 01:20:49;;;;;;;9.02;4.82;;;;;;;23.34;54.30;96052.44;5113902;28;20039;-65
2023/07/21 01:23:26;;;;;;;8.43;4.10;;;;;;;23.33;54.74;96052.56;5114037;28;20044;-65
2023/07/21 01:25:55;;;;;;;6.95;4.50;;;;;;;23.32;54.78;96056.22;5113927;28;20044;-65
2023/07/21 01:28:23;;;;;;;7.30;4.75;;;;;;;23.26;54.59;96055.00;5113758;28;20043;-64
2023/07/21 01:30:53;;;;;;;9.13;4.65;;;;;;;23.17;55.40;96062.06;5113818;28;20055;-65
2023/07/21 01:33:22;;;;;;;11.38;5.10;;;;;;;23.16;55.39;96059.53;5113675;28;20058;-65
2023/07/21 01:35:50;;;;;;;5.97;4.55;;;;;;;23.08;55.34;96054.94;5113740;28;20040;-65
2023/07/21 01:38:19;;;;;;;10.70;4.78;;;;;;;23.08;55.59;96065.63;5113732;28;20400;-65
2023/07/21 01:40:47;;;;;;;9.20;4.38;;;;;;;23.02;55.22;96066.22;5113277;28;20048;-65
2023/07/21 01:43:16;;;;;;;8.95;4.20;;;;;;;22.97;55.46;96061.34;5113745;28;20054;-65
2023/07/21 01:45:43;;;;;;;7.13;4.38;;;;;;;23.03;55.11;96070.56;5113291;28;20079;-65
2023/07/21 01:48:10;;;;;;;9.95;4.60;;;;;;;23.02;55.37;96063.56;5113498;28;20047;-65
2023/07/21 01:50:40;;;;;;;8.02;4.70;;;;;;;23.01;55.36;96067.19;5113846;28;20054;-65
2023/07/21 01:53:13;;;;;;;7.30;4.25;;;;;;;22.95;56.20;96072.16;5113496;28;20070;-65
2023/07/21 01:55:46;;;;;;;9.45;4.47;;;;;;;22.87;56.59;96074.69;5113466;28;20044;-65
2023/07/21 01:58:19;;;;;;;9.80;4.43;;;;;;;22.83;56.48;96075.97;5113436;28;20046;-65
2023/07/21 02:00:48;;;;;;;8.10;4.55;;;;;;;22.89;56.36;96078.06;5113483;28;20090;-65
2023/07/21 02:03:16;;;;;;;6.47;4.25;;;;;;;22.91;56.60;96077.94;5113497;28;20043;-65
2023/07/21 02:05:44;;;;;;;9.95;4.88;;;;;;;22.90;57.60;96077.06;5113404;28;20096;-65
2023/07/21 02:08:11;;;;;;;12.70;4.60;;;;;;;22.85;57.29;96082.84;5113475;28;20044;-65
2023/07/21 02:10:38;;;;;;;10.80;5.32;;;;;;;22.71;57.59;96086.84;5113350;28;20039;-65
2023/07/21 02:13:06;;;;;;;8.15;4.85;;;;;;;22.76;58.14;96097.06;5113271;28;20055;-65
2023/07/21 02:15:34;;;;;;;9.77;4.82;;;;;;;22.70;58.27;96100.31;5113306;28;20544;-65
2023/07/21 02:18:02;;;;;;;8.90;4.47;;;;;;;22.74;58.47;96100.84;5113369;28;20051;-65
2023/07/21 02:20:29;;;;;;;7.90;4.53;;;;;;;22.71;58.68;96099.31;5113229;28;20127;-65
2023/07/21 02:22:57;;;;;;;9.82;4.20;;;;;;;22.68;58.53;96097.78;5113268;28;20043;-65
2023/07/21 02:25:24;;;;;;;10.02;4.57;;;;;;;22.67;58.67;96101.41;5113270;28;20087;-65
2023/07/21 02:27:51;;;;;;;11.23;5.00;;;;;;;22.59;59.23;96106.66;5113208;28;20082;-65
2023/07/21 02:30:19;;;;;;;14.05;4.80;;;;;;;22.59;59.19;96104.84;5113549;28;20054;-65
2023/07/21 02:32:47;;;;;;;8.10;4.90;;;;;;;22.47;59.85;96101.47;5113192;28;20092;-65
2023/07/21 02:35:15;;;;;;;6.57;4.05;;;;;;;22.44;60.13;96111.56;5113140;28;21124;-65
2023/07/21 02:37:42;;;;;;;8.43;4.95;;;;;;;22.49;60.09;96106.66;5113202;28;20083;-65
2023/07/21 02:40:12;;;;;;;7.80;5.07;;;;;;;22.51;59.62;96111.84;5113102;28;20044;-65
2023/07/21 02:42:39;;;;;;;8.93;5.10;;;;;;;22.45;59.91;96105.22;5113150;28;20047;-66
2023/07/21 02:45:06;;;;;;;15.20;4.47;;;;;;;22.40;60.27;96107.50;5112897;28;20097;-65
2023/07/21 02:47:34;;;;;;;8.25;4.65;;;;;;;22.37;60.93;96110.44;5112997;28;20048;-65
2023/07/21 02:50:02;;;;;;;6.53;4.70;;;;;;;22.34;60.89;96109.75;5112993;28;20473;-66
2023/07/21 03:04:15;;;;;;;6.88;5.03;;;;;;;22.53;60.71;96110.69;5103324;27;1419248;-65
2023/07/21 03:06:42;;;;;;;6.88;4.38;;;;;;;22.39;60.70;96111.97;5131355;28;20464;-64
2023/07/21 03:09:10;;;;;;;9.38;5.22;;;;;;;22.31;60.88;96112.69;5131299;28;20058;-64
2023/07/21 03:11:38;;;;;;;10.57;4.97;;;;;;;22.26;61.49;96106.13;5131208;28;20134;-64
2023/07/21 03:14:05;;;;;;;9.80;5.32;;;;;;;22.18;62.03;96098.81;5131216;28;20044;-65
2023/07/21 03:16:32;;;;;;;8.32;5.20;;;;;;;22.09;62.05;96105.84;5131042;28;20104;-65
2023/07/21 03:18:59;;;;;;;6.18;4.93;;;;;;;22.02;62.46;96112.72;5130970;28;20043;-64
2023/07/21 03:21:27;;;;;;;8.52;4.57;;;;;;;21.98;62.90;96117.50;5131001;28;20500;-64
2023/07/21 03:23:55;;;;;;;9.60;5.43;;;;;;;21.86;63.01;96121.28;5130965;28;20377;-65
2023/07/21 03:26:24;;;;;;;10.60;5.90;;;;;;;21.75;63.58;96119.53;5130929;28;20492;-65
2023/07/21 03:28:52;;;;;;;8.18;5.30;;;;;;;21.64;64.22;96125.84;5130835;28;20055;-64
2023/07/21 03:31:19;;;;;;;13.20;5.68;;;;;;;21.62;63.90;96130.47;5130977;28;20047;-65
2023/07/21 03:33:46;;;;;;;10.68;4.85;;;;;;;21.52;64.34;96141.91;5130803;28;20054;-64
2023/07/21 03:36:13;;;;;;;6.00;5.38;;;;;;;21.42;65.38;96139.25;5130885;28;20047;-64
2023/07/21 03:38:42;;;;;;;9.88;5.38;;;;;;;21.39;66.00;96139.53;5130831;28;20150;-64
2023/07/21 03:41:10;;;;;;;7.75;4.97;;;;;;;21.31;66.08;96142.03;5130646;28;20049;-65
2023/07/21 03:43:38;;;;;;;8.00;5.13;;;;;;;21.23;66.16;96147.16;5130608;28;20484;-64
2023/07/21 03:46:07;;;;;;;8.77;5.78;;;;;;;21.25;66.54;96146.03;5130691;28;20043;-65
2023/07/21 03:48:34;;;;;;;9.65;4.82;;;;;;;21.31;66.81;96145.50;5130598;28;20043;-65
2023/07/21 03:51:03;;;;;;;7.32;5.00;;;;;;;21.43;66.61;96154.22;5130308;28;20043;-65
2023/07/21 03:53:31;;;;;;;8.82;5.82;;;;;;;21.62;66.19;96147.28;5130212;28;20048;-65
2023/07/21 03:56:00;;;;;;;8.07;4.45;;;;;;;21.95;65.51;96145.22;5130431;28;20381;-65
2023/07/21 03:58:27;;;;;;;5.95;4.63;;;;;;;22.33;64.49;96148.03;5130328;28;20047;-65
2023/07/21 04:00:55;;;;;;;7.70;4.78;;;;;;;22.77;63.09;96153.88;5130224;28;20044;-65
2023/07/21 04:03:24;;;;;;;8.10;4.28;;;;;;;23.25;61.63;96157.34;5126823;28;20054;-65
2023/07/21 04:05:51;;;;;;;8.98;4.40;;;;;;;23.74;60.31;96158.94;5116642;28;20044;-65
2023/07/21 04:08:19;;;;;;;5.72;4.00;;;;;;;24.18;58.67;96160.91;5116450;28;20378;-65
2023/07/21 04:10:47;;;;;;;6.25;4.15;;;;;;;24.65;56.68;96161.56;5116452;28;20049;-65
2023/07/21 04:13:15;;;;;;;7.93;4.50;;;;;;;25.09;55.70;96163.41;5116358;28;20048;-65
2023/07/21 04:15:42;;;;;;;11.60;4.82;;;;;;;25.49;53.88;96163.72;5116224;28;20128;-65
2023/07/21 04:18:09;;;;;;;8.25;4.45;;;;;;;25.88;52.46;96158.03;5116275;28;20051;-65
2023/07/21 04:20:37;;;;;;;8.30;4.13;;;;;;;26.16;52.04;96160.41;5116211;28;20109;-65
2023/07/21 04:23:04;;;;;;;9.07;3.85;;;;;;;26.52;51.66;96162.78;5116208;28;20397;-65
2023/07/21 04:25:32;;;;;;;7.75;4.38;;;;;;;26.85;50.28;96170.78;5116071;28;20044;-65
2023/07/21 04:27:59;;;;;;;9.20;4.35;;;;;;;27.22;49.71;96167.72;5115973;28;20051;-65
2023/07/21 04:30:29;;;;;;;5.72;3.53;;;;;;;27.50;48.88;96169.94;5116144;28;20051;-65
2023/07/21 04:32:57;;;;;;;6.45;4.15;;;;;;;27.68;48.52;96179.63;5115940;28;20052;-65
2023/07/21 04:35:24;;;;;;;9.65;4.15;;;;;;;28.00;47.52;96180.47;5115870;28;20047;-65
2023/07/21 04:37:51;;;;;;;8.25;4.40;;;;;;;28.43;46.98;96180.03;5115919;28;20047;-65
2023/07/21 04:40:20;;;;;;;8.85;4.35;;;;;;;28.87;46.33;96197.28;5115821;28;20047;-65
2023/07/21 04:42:47;;;;;;;6.90;3.72;;;;;;;29.34;46.67;96191.78;5115827;28;20087;-65
2023/07/21 04:45:15;;;;;;;7.35;3.72;;;;;;;29.71;44.34;96199.94;5115674;28;20046;-65
2023/07/21 04:47:43;;;;;;;6.55;3.67;;;;;;;29.93;43.77;96201.88;5115708;28;20047;-65
2023/07/21 04:50:10;;;;;;;7.85;4.18;;;;;;;30.06;43.29;96199.31;5115611;28;20051;-65
2023/07/21 04:52:38;;;;;;;10.13;3.60;;;;;;;30.29;43.33;96201.06;5115494;28;20051;-65
2023/07/21 04:55:06;;;;;;;10.70;4.60;;;;;;;30.35;42.39;96208.38;5115539;28;20054;-65
2023/07/21 04:57:35;;;;;;;11.35;4.47;;;;;;;30.33;41.94;96202.31;5115482;28;20105;-65
2023/07/21 05:00:03;;;;;;;7.30;3.75;;;;;;;30.40;42.06;96202.41;5115501;28;20131;-65
2023/07/21 05:02:30;;;;;;;5.05;3.80;;;;;;;30.50;42.24;96202.06;5115219;28;20071;-65
2023/07/21 05:04:59;;;;;;;9.45;4.10;;;;;;;30.20;42.98;96200.34;5115457;28;20499;-65
2023/07/21 05:07:26;;;;;;;5.53;4.00;;;;;;;29.97;42.31;96198.59;5115412;28;20051;-65
2023/07/21 05:09:55;;;;;;;8.00;4.47;;;;;;;29.81;43.94;96207.75;5115303;28;20052;-65
2023/07/21 05:12:25;;;;;;;7.95;3.75;;;;;;;29.72;43.26;96208.88;5115014;28;20048;-65
2023/07/21 05:14:52;;;;;;;9.33;4.03;;;;;;;29.99;43.28;96214.59;5114685;28;20134;-65
2023/07/21 05:17:19;;;;;;;7.57;4.00;;;;;;;29.86;43.81;96215.28;5114607;28;20043;-65
2023/07/21 05:19:47;;;;;;;5.70;3.80;;;;;;;29.99;42.35;96217.28;5114956;28;20108;-65
2023/07/21 05:22:15;;;;;;;6.22;4.05;;;;;;;30.21;44.82;96212.78;5115002;28;20569;-65
2023/07/21 05:24:42;;;;;;;7.03;3.90;;;;;;;30.62;43.10;96211.31;5114915;28;20047;-64
2023/07/21 05:27:10;;;;;;;5.00;3.53;;;;;;;31.10;41.79;96209.84;5114911;28;20075;-65
2023/07/21 05:29:38;;;;;;;10.32;4.43;;;;;;;31.38;41.07;96221.69;5114738;28;20493;-65
2023/07/21 05:32:06;;;;;;;7.75;3.85;;;;;;;31.49;41.51;96218.44;5114681;28;20082;-65
2023/07/21 05:34:33;;;;;;;5.38;3.67;;;;;;;31.64;38.98;96212.88;5114683;28;20052;-65
2023/07/21 05:37:00;;;;;;;6.55;3.80;;;;;;;31.82;40.45;96213.38;5114667;28;20043;-65
2023/07/21 05:39:32;;;;;;;11.05;3.95;;;;;;;32.09;39.06;96227.88;5114555;28;20055;-65
2023/07/21 05:42:00;;;;;;;6.63;4.07;;;;;;;32.06;38.53;96225.56;5114676;28;20127;-65
2023/07/21 05:44:30;;;;;;;6.70;4.15;;;;;;;31.96;38.53;96225.94;5114574;28;20127;-65
2023/07/21 05:46:57;;;;;;;8.30;3.90;;;;;;;31.74;37.74;96231.44;5114543;28;20480;-65
2023/07/21 05:49:25;;;;;;;5.10;3.50;;;;;;;31.77;38.74;96222.94;5114470;28;20040;-65
2023/07/21 05:51:52;;;;;;;8.35;4.07;;;;;;;32.05;39.12;96239.28;5114445;28;20082;-65
2023/07/21 05:54:19;;;;;;;6.57;3.95;;;;;;;32.36;38.93;96241.44;5114260;28;20489;-64
2023/07/21 05:56:48;;;;;;;7.75;3.38;;;;;;;32.69;37.46;96236.31;5114279;28;20044;-65
2023/07/21 05:59:15;;;;;;;13.40;4.78;;;;;;;32.64;36.79;96243.19;5114207;28;20050;-65
2023/07/21 06:01:42;;;;;;;5.80;3.78;;;;;;;32.72;36.45;96238.63;5114172;28;20130;-65
2023/07/21 06:04:09;;;;;;;7.70;3.72;;;;;;;32.53;36.22;96241.94;5114150;28;20079;-65
2023/07/21 06:06:36;;;;;;;7.90;4.10;;;;;;;32.62;37.02;96244.41;5114228;28;20105;-65
2023/07/21 06:09:04;;;;;;;9.45;4.05;;;;;;;32.22;36.94;96248.69;5114144;28;20044;-64
2023/07/21 06:11:32;;;;;;;5.15;3.72;;;;;;;31.99;37.60;96249.03;5114017;28;20101;-65
2023/07/21 06:14:00;;;;;;;5.68;3.53;;;;;;;31.47;36.78;96246.66;5113835;28;20408;-65
2023/07/21 06:16:27;;;;;;;6.32;3.95;;;;;;;31.30;37.64;96255.03;5113885;28;20060;-64
2023/07/21 06:18:55;;;;;;;5.13;3.75;;;;;;;31.48;36.90;96254.56;5113866;28;20484;-65
2023/07/21 06:21:22;;;;;;;10.75;3.90;;;;;;;31.61;36.91;96253.00;5113843;28;20092;-65
2023/07/21 06:23:49;;;;;;;4.82;3.60;;;;;;;31.95;36.41;96258.56;5113816;28;20043;-64
2023/07/21 06:26:16;;;;;;;5.25;3.42;;;;;;;32.20;34.47;96252.66;5113523;28;20051;-65
2023/07/21 06:28:43;;;;;;;7.00;3.45;;;;;;;32.19;34.44;96250.97;5113678;28;20481;-64
2023/07/21 06:31:12;;;;;;;11.13;4.05;;;;;;;32.50;36.03;96253.16;5113823;28;20048;-65
2023/07/21 06:33:39;;;;;;;8.93;3.70;;;;;;;32.79;34.13;96255.69;5113692;28;20058;-64
2023/07/21 06:36:06;;;;;;;6.70;3.50;;;;;;;32.91;33.14;96255.91;5113895;28;20048;-64
2023/07/21 06:38:34;;;;;;;5.10;3.35;;;;;;;33.27;33.78;96254.69;5113712;28;20130;-65
2023/07/21 06:41:01;;;;;;;6.60;3.40;;;;;;;33.12;32.67;96246.78;5113602;28;20506;-64
2023/07/21 06:43:28;;;;;;;5.22;3.80;;;;;;;32.72;33.29;96260.28;5113829;28;20051;-65
2023/07/21 06:45:55;;;;;;;10.52;3.70;;;;;;;32.68;34.19;96254.44;5113763;28;20074;-64
2023/07/21 06:48:24;;;;;;;5.95;3.20;;;;;;;32.93;34.45;96261.97;5113483;28;20385;-64
2023/07/21 06:50:52;;;;;;;7.45;3.80;;;;;;;33.31;33.36;96265.09;5113741;28;20463;-65
2023/07/21 06:53:19;;;;;;;5.82;3.35;;;;;;;33.59;32.50;96258.59;5113471;28;20051;-65
2023/07/21 06:55:49;;;;;;;5.10;3.70;;;;;;;33.72;31.21;96252.31;5113486;28;20118;-65
2023/07/21 06:58:16;;;;;;;6.57;3.90;;;;;;;33.44;32.16;96266.94;5113504;28;20126;-65
2023/07/21 07:00:43;;;;;;;5.88;3.90;;;;;;;33.07;32.73;96254.69;5113468;28;20039;-65
2023/07/21 07:03:10;;;;;;;5.78;3.20;;;;;;;32.97;32.46;96263.19;5113535;28;20145;-65
2023/07/21 07:05:41;;;;;;;8.50;3.65;;;;;;;32.82;33.54;96259.84;5113432;28;20048;-64
2023/07/21 07:08:10;;;;;;;7.30;4.10;;;;;;;33.03;33.41;96264.25;5113421;28;20488;-65
2023/07/21 07:10:37;;;;;;;6.65;3.88;;;;;;;32.66;32.80;96261.94;5113383;28;20044;-64
2023/07/21 07:13:04;;;;;;;6.93;3.75;;;;;;;32.53;33.32;96257.31;5113246;28;20116;-64
2023/07/21 07:15:31;;;;;;;8.05;3.60;;;;;;;32.43;33.44;96260.41;5113383;28;20101;-64
2023/07/21 07:17:58;;;;;;;5.28;3.38;;;;;;;32.71;34.12;96256.72;5113336;28;20465;-64
2023/07/21 07:20:26;;;;;;;5.85;3.70;;;;;;;32.82;35.29;96263.41;5113240;28;20118;-64
2023/07/21 07:22:54;;;;;;;4.60;3.47;;;;;;;32.84;32.71;96265.91;5113219;28;20419;-65
2023/07/21 07:25:24;;;;;;;6.20;3.97;;;;;;;32.45;33.26;96271.03;5113169;28;20575;-65
2023/07/21 07:27:51;;;;;;;5.18;3.70;;;;;;;32.11;32.18;96257.41;5113188;28;20058;-65
2023/07/21 07:30:20;;;;;;;5.93;3.33;;;;;;;32.34;34.81;96265.16;5113111;28;20232;-66
2023/07/21 07:32:47;;;;;;;7.05;3.65;;;;;;;32.15;32.93;96255.97;5113127;28;20052;-64
2023/07/21 07:35:16;;;;;;;5.80;3.25;;;;;;;32.18;31.38;96262.81;5113124;28;20240;-65
2023/07/21 07:37:44;;;;;;;6.43;3.13;;;;;;;32.20;32.12;96277.81;5113070;28;20051;-65
2023/07/21 07:40:13;;;;;;;7.40;4.13;;;;;;;32.33;31.43;96266.22;5116085;28;20047;-65
2023/07/21 07:42:41;;;;;;;6.95;3.55;;;;;;;32.63;31.28;96260.44;5117026;28;20059;-64
2023/07/21 07:45:09;;;;;;;6.25;3.83;;;;;;;33.01;31.96;96260.91;5117026;28;20074;-64
2023/07/21 07:47:36;;;;;;;6.20;3.55;;;;;;;33.34;33.13;96270.06;5116786;28;20043;-65
2023/07/21 07:50:05;;;;;;;5.68;3.45;;;;;;;33.81;30.89;96261.88;5116882;28;20102;-63
2023/07/21 07:52:32;;;;;;;10.02;3.72;;;;;;;34.36;30.19;96268.75;5116731;28;20104;-64
2023/07/21 07:55:00;;;;;;;7.22;3.90;;;;;;;34.49;30.26;96272.44;5116561;28;20051;-63
2023/07/21 07:57:29;;;;;;;6.70;3.60;;;;;;;34.50;29.49;96271.38;5116667;28;20056;-64
2023/07/21 07:59:56;;;;;;;8.80;3.70;;;;;;;34.41;30.35;96278.97;5116540;28;20051;-65
2023/07/21 08:02:23;;;;;;;8.52;4.30;;;;;;;34.30;31.09;96272.34;5116216;28;20058;-65
2023/07/21 08:04:50;;;;;;;5.57;4.32;;;;;;;34.12;33.48;96271.16;5116517;28;20470;-64
2023/07/21 08:07:18;;;;;;;11.43;4.38;;;;;;;34.16;30.84;96269.69;5116532;28;20122;-64
2023/07/21 08:09:45;;;;;;;8.50;4.57;;;;;;;34.18;30.60;96269.47;5116496;28;20440;-64
2023/07/21 08:12:13;;;;;;;9.68;4.88;;;;;;;34.32;32.31;96274.81;5116324;28;20051;-64
2023/07/21 08:14:42;;;;;;;6.93;4.40;;;;;;;34.34;31.15;96276.25;5116263;28;20060;-65
2023/07/21 08:17:09;;;;;;;11.23;4.18;;;;;;;34.51;34.03;96275.75;5116257;28;20039;-64
2023/07/21 08:19:37;;;;;;;6.40;3.95;;;;;;;34.71;31.20;96272.97;5116259;28;20043;-65
2023/07/21 08:22:06;;;;;;;7.28;4.63;;;;;;;34.95;31.81;96275.94;5116091;28;20130;-65
2023/07/21 08:24:34;;;;;;;7.22;4.20;;;;;;;35.06;31.60;96287.13;5116024;28;20504;-65
2023/07/21 08:27:02;;;;;;;6.28;4.38;;;;;;;35.05;32.02;96286.28;5115949;28;20078;-64
2023/07/21 08:29:30;;;;;;;9.07;4.47;;;;;;;35.09;30.12;96281.25;5115917;28;20084;-65
2023/07/21 08:31:59;;;;;;;9.20;4.15;;;;;;;34.36;32.02;96284.19;5115920;28;20135;-65
2023/07/21 08:34:27;;;;;;;6.10;4.15;;;;;;;33.97;31.34;96290.38;5115916;28;20508;-65
2023/07/21 08:36:55;;;;;;;5.78;4.00;;;;;;;33.73;32.25;96286.50;5115821;28;20050;-65
2023/07/21 08:39:24;;;;;;;6.10;3.92;;;;;;;33.83;31.90;96289.59;5115877;28;20135;-65
2023/07/21 08:41:52;;;;;;;7.93;4.88;;;;;;;33.83;32.89;96295.00;5115868;28;20051;-64
2023/07/21 08:44:20;;;;;;;10.77;4.38;;;;;;;33.97;32.90;96292.25;5115843;28;20044;-64
2023/07/21 08:46:48;;;;;;;7.63;4.80;;;;;;;33.74;32.19;96299.84;5116015;28;20044;-65
2023/07/21 08:49:18;;;;;;;11.13;4.43;;;;;;;33.71;33.80;96285.88;5115691;28;20497;-65
2023/07/21 08:51:46;;;;;;;6.38;4.07;;;;;;;34.01;33.35;96294.34;5115552;28;20052;-65
2023/07/21 08:54:13;;;;;;;8.13;4.55;;;;;;;34.16;34.92;96296.81;5115430;28;20047;-64
2023/07/21 08:56:40;;;;;;;11.80;4.72;;;;;;;34.28;34.77;96294.25;5115445;28;20044;-64
2023/07/21 08:59:08;;;;;;;6.40;5.03;;;;;;;34.52;32.49;96291.81;5115462;28;20052;-65
2023/07/21 09:01:35;;;;;;;8.45;5.35;;;;;;;34.77;33.88;96298.41;5115441;28;20047;-64
2023/07/21 09:04:02;;;;;;;12.82;4.22;;;;;;;35.14;31.91;96303.13;5115077;28;20409;-65
2023/07/21 09:06:35;;;;;;;8.32;4.53;;;;;;;35.33;32.42;96308.66;5115410;28;20047;-65
2023/07/21 09:09:02;;;;;;;5.78;4.18;;;;;;;35.61;31.24;96313.63;5115244;28;20118;-65
2023/07/21 09:11:37;;;;;;;9.43;4.78;;;;;;;35.42;31.20;96324.47;5115182;28;20052;-64
2023/07/21 09:14:04;;;;;;;8.20;4.93;;;;;;;34.80;31.96;96325.13;5115031;28;20053;-65
2023/07/21 09:16:34;;;;;;;7.82;5.13;;;;;;;34.36;31.98;96325.75;5115127;28;20043;-65
2023/07/21 09:19:01;;;;;;;;;;;;;;;33.93;33.69;96320.84;5115674;28;20048;-65
2023/07/21 09:21:28;;;;;;;10.20;5.43;;;;;;;33.72;34.30;96320.06;5114958;28;19926;-64
2023/07/21 09:24:04;;;;;;;8.85;5.30;;;;;;;33.59;36.42;96318.22;5114998;28;20066;-65
2023/07/21 09:26:31;;;;;;;7.78;5.22;;;;;;;33.50;34.99;96325.72;5114880;28;20047;-65
2023/07/21 09:28:59;;;;;;;10.10;5.03;;;;;;;33.78;34.59;96317.38;5114871;28;20108;-64
2023/07/21 09:31:29;;;;;;;7.90;5.40;;;;;;;33.41;34.12;96322.41;5114838;28;20048;-63
2023/07/21 09:34:06;;;;;;;7.25;4.72;;;;;;;33.34;35.28;96324.25;5114672;28;20083;-63
2023/07/21 09:36:33;;;;;;;9.55;5.15;;;;;;;33.23;35.02;96326.53;5114780;28;20047;-64
2023/07/21 09:39:05;;;;;;;7.43;5.50;;;;;;;33.10;35.64;96321.13;5114629;28;20066;-64
2023/07/21 09:41:33;;;;;;;11.57;5.53;;;;;;;33.17;34.76;96307.59;5114679;28;20106;-64
2023/07/21 09:44:01;;;;;;;10.82;5.90;;;;;;;32.72;36.69;96309.81;5114692;28;20051;-65
2023/07/21 09:46:30;;;;;;;11.43;5.80;;;;;;;32.38;35.54;96319.69;5114704;28;20447;-63
2023/07/21 09:48:57;;;;;;;7.60;5.60;;;;;;;32.31;34.52;96308.84;5114603;28;20051;-64
2023/07/21 09:51:26;;;;;;;8.65;4.72;;;;;;;32.31;34.35;96305.31;5114403;28;20100;-64
2023/07/21 09:53:54;;;;;;;11.73;5.50;;;;;;;32.34;37.61;96308.44;5114290;28;20446;-64
2023/07/21 09:56:25;;;;;;;9.80;5.43;;;;;;;32.64;35.49;96304.59;5114401;28;20413;-64
2023/07/21 09:59:01;;;;;;;11.63;5.18;;;;;;;32.73;37.32;96302.53;5114388;28;20091;-64
2023/07/21 10:01:30;;;;;;;8.73;5.45;;;;;;;32.96;35.76;96312.97;5113823;28;20051;-64
2023/07/21 10:03:59;;;;;;;10.02;5.65;;;;;;;32.71;35.08;96316.28;5114040;28;20043;-64
2023/07/21 10:06:31;;;;;;;9.75;5.88;;;;;;;32.82;34.38;96314.84;5114160;28;20044;-63
2023/07/21 10:08:58;;;;;;;9.02;5.35;;;;;;;32.93;34.58;96316.09;5114255;28;20039;-64
2023/07/21 10:11:28;;;;;;;8.45;5.32;;;;;;;32.92;33.23;96322.53;5114230;28;20465;-64
2023/07/21 10:13:56;;;;;;;6.63;5.20;;;;;;;32.85;33.18;96308.16;5114036;28;20079;-64
2023/07/21 10:16:23;;;;;;;5.75;4.75;;;;;;;33.05;34.36;96305.53;5113954;28;20582;-64
2023/07/21 10:19:01;;;;;;;6.70;5.50;;;;;;;33.46;33.56;96305.47;5114045;28;20054;-64
2023/07/21 10:21:31;;;;;;;7.97;4.88;;;;;;;33.74;34.28;96312.56;5114017;28;20043;-64
2023/07/21 10:24:00;;;;;;;;;;;;;;;33.45;32.42;96301.97;5114517;28;20047;-64
2023/07/21 10:26:30;;;;;;;6.30;4.93;;;;;;;33.52;32.36;96289.22;5113896;28;20325;-65
2023/07/21 10:29:16;;;;;;;9.18;4.68;;;;;;;33.65;32.76;96299.22;5113973;28;20446;-65
2023/07/21 10:31:52;;;;;;;11.27;5.20;;;;;;;33.04;31.81;96317.38;5113942;28;20048;-64
2023/07/21 10:34:24;;;;;;;6.32;4.45;;;;;;;32.82;32.35;96308.56;5113645;28;20489;-64
2023/07/21 10:36:58;;;;;;;8.55;4.82;;;;;;;32.93;33.27;96299.88;5113809;28;20564;-64
2023/07/21 10:39:27;;;;;;;8.40;5.00;;;;;;;32.85;32.24;96309.00;5113690;28;20059;-64
2023/07/21 10:41:57;;;;;;;10.10;5.25;;;;;;;32.68;32.71;96305.84;5113690;28;20556;-63
2023/07/21 10:44:24;;;;;;;;;;;;;;;32.75;32.68;96295.88;5114042;28;20502;-64
2023/07/21 10:46:52;;;;;;;9.52;4.30;;;;;;;32.60;34.18;96296.03;5113564;28;19962;-64
2023/07/21 10:49:20;;;;;;;7.78;4.82;;;;;;;32.57;32.89;96307.31;5113535;28;20093;-63
2023/07/21 10:51:49;;;;;;;9.15;4.78;;;;;;;32.46;34.82;96299.72;5113726;28;20040;-64
2023/07/21 10:54:17;;;;;;;6.90;4.70;;;;;;;32.32;33.20;96299.69;5113545;28;20040;-64
2023/07/21 10:56:47;;;;;;;11.32;4.80;;;;;;;32.29;33.95;96300.09;5113513;28;20097;-64
2023/07/21 10:59:18;;;;;;;9.32;4.85;;;;;;;32.25;33.00;96296.97;5113612;28;20075;-64
2023/07/21 11:01:47;;;;;;;9.02;4.55;;;;;;;32.42;34.65;96302.03;5113493;28;20177;-64
2023/07/21 11:04:15;;;;;;;10.53;4.17;;;;;;;32.43;31.54;96300.97;5113169;28;20051;-65
2023/07/21 11:06:43;;;;;;;9.48;4.70;;;;;;;32.34;32.93;96297.63;5113373;28;20055;-65
2023/07/21 11:09:13;;;;;;;6.22;4.60;;;;;;;32.33;33.16;96292.41;5113374;28;20046;-64
2023/07/21 11:11:41;;;;;;;;;;;;;;;32.55;35.40;96285.00;5113831;28;20056;-64
2023/07/21 11:14:12;;;;;;;8.25;4.38;;;;;;;32.99;33.50;96295.50;5114738;28;19920;-64
2023/07/21 11:16:52;;;;;;;7.50;4.07;;;;;;;33.33;31.45;96284.66;5117543;28;20059;-64
2023/07/21 11:19:21;;;;;;;7.85;4.45;;;;;;;33.41;31.84;96290.69;5117445;28;20048;-65
2023/07/21 11:21:48;;;;;;;5.60;4.45;;;;;;;33.27;31.78;96286.34;5117385;28;20081;-64
2023/07/21 11:24:17;;;;;;;5.93;3.78;;;;;;;33.47;32.77;96278.19;5117421;28;20089;-64
2023/07/21 11:26:46;;;;;;;9.73;4.18;;;;;;;33.63;30.37;96270.69;5117386;28;20048;-63
2023/07/21 11:29:15;;;;;;;8.43;4.68;;;;;;;33.77;31.92;96268.78;5117248;28;20048;-64
2023/07/21 11:31:42;;;;;;;6.25;4.20;;;;;;;33.90;30.81;96270.59;5117088;28;20052;-64
2023/07/21 11:34:20;;;;;;;6.95;4.15;;;;;;;33.85;29.58;96270.41;5117123;28;20079;-64
2023/07/21 11:36:49;;;;;;;5.05;3.85;;;;;;;33.64;27.87;96270.47;5117142;28;20043;-64
2023/07/21 11:39:20;;;;;;;8.45;3.78;;;;;;;33.67;29.27;96265.69;5116934;28;20056;-64
2023/07/21 11:41:54;;;;;;;8.20;3.75;;;;;;;33.71;29.65;96266.91;5117241;28;20097;-63
2023/07/21 11:44:23;;;;;;;6.80;4.03;;;;;;;33.20;30.05;96261.94;5116979;28;20063;-64
2023/07/21 11:46:56;;;;;;;11.23;4.38;;;;;;;33.30;30.97;96258.84;5116926;28;20047;-64
2023/07/21 11:49:25;;;;;;;7.55;3.72;;;;;;;33.38;29.62;96255.09;5116795;28;20043;-64